Latest Weather Observations for Moss Vale

IDN60801

Issued at 7:42 am EST Thursday 1 October 2020 (issued every 10 minutes, with the page automatically refreshed every 10 minutes)

About weather observations | Map of weather stations | Latest weather observations for NSW | Other Formats
Station Details ID: 068239 Name: MOSS VALE AWS Lat: -34.53 Lon: 150.42 Height: 678.4 m
Data from the previous 72 hours. | See also: Recent months at Moss Vale
Date/Time
EST
Temp
°C
App
Temp
°C
Dew
Point
°C
Rel
Hum
%
Delta-T
°C
Wind Press
QNH
hPa
Press
MSL
hPa
Rain since
9am
mm
Dir  Spd
km/h
Gust
km/h
Spd
kts
Gust
kts
01/07:30am 10.4 4.9 7.6 83 1.4 W 26 39 14 21 1015.1 1014.6 2.2
01/07:00am 10.2 5.1 7.6 84 1.3 W 24 33 13 18 1014.5 1014.1 2.2
01/06:30am 10.0 4.9 7.6 85 1.2 W 24 33 13 18 1014.1 1013.6 2.2
01/06:00am 9.9 5.8 8.0 88 1.0 WNW 19 26 10 14 1013.5 1013.0 2.2
01/05:30am 10.0 6.3 8.1 88 1.0 WNW 17 20 9 11 1013.0 1012.6 2.2
01/05:00am 10.7 5.9 9.0 89 0.9 W 24 37 13 20 1012.8 1012.3 2.0
01/04:30am 10.8 7.3 8.9 88 1.0 WNW 17 24 9 13 1012.5 1012.0 1.6
01/04:00am 11.0 7.1 9.3 89 0.9 WNW 20 30 11 16 1012.0 1011.5 1.6
01/03:30am 11.0 7.6 9.3 89 0.9 WNW 17 28 9 15 1011.8 1011.3 1.6
01/03:00am 10.9 8.3 9.3 90 0.8 NW 13 22 7 12 1011.9 1011.4 1.6
01/02:30am 10.9 7.2 9.3 90 0.8 NW 19 32 10 17 1011.8 1011.3 1.6
01/02:00am 10.7 8.1 9.3 91 0.7 N 13 19 7 10 1011.9 1011.4 1.6
01/01:30am 10.8 8.9 9.2 90 0.8 WNW 9 13 5 7 1012.6 1012.1 1.0
01/01:00am 11.1 8.9 9.2 88 1.0 WNW 11 20 6 11 1012.9 1012.4 0.8
01/12:47am 11.3 7.9 9.0 86 1.2 NW 17 22 9 12 1012.8 1012.3 0.6
01/12:31am 11.7 7.6 8.7 82 1.5 NW 20 28 11 15 1012.5 1012.0 0.6
01/12:30am 11.8 7.9 8.6 81 1.6 NW 19 28 10 15 1012.6 1012.1 0.6
01/12:00am 11.3 7.7 8.2 81 1.6 NNW 17 24 9 13 1012.5 1012.0 0.0
 
Date/Time
EST
Temp
°C
App
Temp
°C
Dew
Point
°C
Rel
Hum
%
Delta-T
°C
Wind Press
QNH
hPa
Press
MSL
hPa
Rain since
9am
mm
Dir  Spd
km/h
Gust
km/h
Spd
kts
Gust
kts
30/11:30pm 11.1 8.2 8.3 83 1.4 N 13 20 7 11 1012.7 1012.2 0.0
30/11:00pm 11.0 6.8 8.1 82 1.5 N 20 24 11 13 1012.5 1012.0 0.0
30/10:30pm 11.1 8.3 8.5 84 1.3 NNE 13 20 7 11 1012.8 1012.3 0.0
30/10:00pm 10.9 8.0 8.3 84 1.3 N 13 17 7 9 1013.6 1013.1 0.0
30/09:30pm 10.9 8.5 8.5 85 1.2 NNE 11 15 6 8 1013.6 1013.1 0.0
30/09:00pm 10.3 8.8 8.4 88 1.0 ENE 6 9 3 5 1014.0 1013.5 0.0
30/08:30pm 9.8 6.1 8.1 89 0.9 N 17 24 9 13 1014.2 1013.7 0.0
30/08:00pm 9.4 5.7 7.8 90 0.8 NNE 17 20 9 11 1014.0 1013.5 0.0
30/07:30pm 10.5 7.7 8.6 88 1.0 NE 13 15 7 8 1014.3 1013.9 0.0
30/07:00pm 10.7 7.5 8.5 86 1.1 NNE 15 17 8 9 1014.1 1013.6 0.0
30/06:30pm 11.2 8.5 8.8 85 1.2 NNE 13 17 7 9 1014.1 1013.6 0.0
30/06:00pm 11.9 8.4 8.9 82 1.6 N 17 20 9 11 1014.0 1013.5 0.0
30/05:30pm 12.4 9.1 9.4 82 1.6 NNE 17 20 9 11 1013.8 1013.3 0.0
30/05:00pm 12.7 9.4 9.7 82 1.6 NNE 17 20 9 11 1013.8 1013.3 0.0
30/04:30pm 13.6 10.9 10.2 80 1.8 N 15 20 8 11 1013.6 1013.1 0.0
30/04:00pm 13.2 10.6 10.7 85 1.4 N 15 24 8 13 1013.8 1013.3 0.0
30/03:30pm 12.9 10.2 10.4 85 1.3 N 15 19 8 10 1014.2 1013.7 0.0
30/03:00pm 13.6 10.1 8.9 73 2.5 NNW 17 26 9 14 1014.2 1013.7 0.0
30/02:30pm 14.7 10.8 8.6 67 3.2 N 19 22 10 12 1014.2 1013.7 0.0
30/02:00pm 14.8 10.2 8.1 64 3.5 N 22 28 12 15 1014.4 1014.0 0.0
30/01:30pm 15.0 10.4 8.3 64 3.5 N 22 33 12 18 1015.0 1014.5 0.0
30/01:00pm 16.3 12.6 10.2 67 3.3 N 20 26 11 14 1015.4 1014.9 0.0
30/12:30pm 15.2 10.9 8.0 62 3.7 N 20 28 11 15 1015.9 1015.5 0.0
30/12:00pm 15.3 11.1 8.3 63 3.7 NNE 20 28 11 15 1016.5 1016.0 0.0
30/11:30am 15.0 9.6 7.8 62 3.7 NNE 26 35 14 19 1017.0 1016.6 0.0
30/11:00am 14.5 9.3 7.1 61 3.8 NNE 24 33 13 18 1017.6 1017.2 0.0
30/10:30am 13.7 7.9 6.1 60 3.8 N 26 35 14 19 1018.6 1018.2 0.0
30/10:00am 13.6 7.7 7.4 66 3.1 NNE 28 35 15 19 1018.6 1018.2 0.0
30/09:30am 12.8 8.4 7.3 69 2.8 NNE 20 28 11 15 1019.1 1018.7 0.0
30/09:00am 12.7 8.3 7.2 69 2.8 NNE 20 26 11 14 1019.5 1019.1 0.0
30/08:30am 12.8 7.9 7.0 68 2.9 NNE 22 28 12 15 1019.5 1019.1 0.0
30/08:00am 12.2 7.0 7.3 72 2.5 NNE 24 33 13 18 1019.6 1019.2 0.0
30/07:30am 11.0 6.0 6.4 73 2.2 N 22 30 12 16 1019.3 1018.9 0.0
30/07:00am 10.1 4.0 6.4 78 1.8 NNE 28 37 15 20 1019.3 1018.9 0.0
30/06:30am 9.2 3.4 6.3 82 1.4 NNE 26 33 14 18 1019.2 1018.8 0.0
30/06:00am 8.6 3.5 6.2 85 1.1 NNE 22 30 12 16 1019.2 1018.8 0.0
30/05:30am 8.4 3.3 6.0 85 1.1 NNE 22 32 12 17 1018.9 1018.5 0.0
30/05:00am 8.2 2.7 6.0 86 1.0 NNE 24 30 13 16 1018.6 1018.2 0.0
30/04:30am 8.2 2.0 6.2 87 1.0 NNE 28 35 15 19 1018.6 1018.2 0.0
30/04:00am 8.3 2.5 6.1 86 1.0 NNE 26 33 14 18 1018.6 1018.2 0.0
30/03:30am 8.4 1.4 6.0 85 1.1 NNE 32 39 17 21 1018.8 1018.4 0.0
30/03:00am 8.0 1.8 6.0 87 0.9 NNE 28 35 15 19 1019.2 1018.8 0.0
30/02:30am 7.6 2.2 6.2 91 0.7 NNE 24 32 13 17 1019.7 1019.3 0.0
30/02:00am 7.0 2.2 5.6 91 0.6 NNE 20 26 11 14 1020.4 1020.0 0.0
30/01:30am 7.2 1.3 5.8 91 0.7 NNE 26 30 14 16 1020.7 1020.4 0.0
30/01:00am 7.4 1.5 6.0 91 0.7 NNE 26 30 14 16 1020.9 1020.6 0.0
30/12:30am 7.6 2.1 6.1 90 0.7 NNE 24 28 13 15 1021.5 1021.1 0.0
30/12:00am 7.5 3.4 6.0 90 0.7 NNE 17 22 9 12 1022.0 1021.7 0.0
 
Date/Time
EST
Temp
°C
App
Temp
°C
Dew
Point
°C
Rel
Hum
%
Delta-T
°C
Wind Press
QNH
hPa
Press
MSL
hPa
Rain since
9am
mm
Dir  Spd
km/h
Gust
km/h
Spd
kts
Gust
kts
29/11:30pm 7.8 3.7 6.1 89 0.8 NNE 17 22 9 12 1022.2 1021.9 0.0
29/11:00pm 8.0 4.3 6.5 90 0.7 NNE 15 20 8 11 1022.4 1022.1 0.0
29/10:30pm 8.1 3.7 6.4 89 0.8 NNE 19 24 10 13 1022.7 1022.3 0.0
29/10:00pm 8.0 3.9 6.1 88 0.9 NNE 17 22 9 12 1023.1 1022.7 0.0
29/09:30pm 8.1 3.6 6.2 88 0.9 NNE 19 26 10 14 1023.2 1022.8 0.0
29/09:00pm 8.2 3.7 6.3 88 0.9 NNE 19 26 10 14 1023.5 1023.2 0.0
29/08:30pm 8.4 4.7 6.5 88 0.9 NNE 15 20 8 11 1023.5 1023.2 0.0
29/08:00pm 8.8 4.9 6.9 88 0.9 NE 17 22 9 12 1023.6 1023.3 0.0
29/07:30pm 8.8 4.8 6.6 86 1.1 NE 17 24 9 13 1023.5 1023.2 0.0
29/07:00pm 8.4 5.1 6.2 86 1.0 NE 13 15 7 8 1023.3 1023.0 0.0
29/06:30pm 8.8 5.2 6.6 86 1.1 NE 15 19 8 10 1023.0 1022.6 0.0
29/06:00pm 9.3 5.3 6.6 83 1.3 E 17 20 9 11 1022.9 1022.5 0.0
29/05:30pm 10.6 6.7 7.1 79 1.7 ENE 17 22 9 12 1022.6 1022.2 0.0
29/05:00pm 11.8 7.9 7.1 73 2.3 ENE 17 24 9 13 1022.4 1022.1 0.0
29/04:30pm 13.1 8.1 4.5 56 4.1 NE 20 28 11 15 1022.3 1022.0 0.0
29/04:00pm 14.0 8.2 4.6 53 4.5 NE 24 30 13 16 1022.1 1021.8 0.0
29/03:30pm 14.3 9.0 4.9 53 4.6 NE 22 30 12 16 1022.2 1021.9 0.0
29/03:00pm 14.8 10.4 6.6 58 4.1 NE 19 26 10 14 1022.7 1022.3 0.0
29/02:30pm 14.7 9.8 5.2 53 4.6 NE 20 28 11 15 1022.8 1022.4 0.0
29/02:00pm 14.9 10.4 6.0 55 4.4 NNE 19 28 10 15 1023.2 1022.8 0.0
29/01:30pm 14.9 11.8 7.2 60 3.9 ENE 13 22 7 12 1023.8 1023.5 0.0
29/01:00pm 15.0 12.0 7.5 61 3.8 NE 13 24 7 13 1024.3 1023.9 0.0
29/12:30pm 14.6 11.1 7.2 61 3.8 E 15 20 8 11 1024.8 1024.5 0.0
29/12:00pm 14.6 11.4 8.3 66 3.3 NE 15 22 8 12 1025.1 1024.8 0.0
29/11:30am 13.4 9.7 6.3 62 3.5 ENE 15 20 8 11 1025.5 1025.2 0.0
29/11:00am 13.8 11.6 8.0 68 3.0 NNE 9 20 5 11 1026.2 1025.9 0.0
29/10:30am 13.4 10.6 7.0 65 3.2 NNE 11 17 6 9 1026.8 1026.5 0.0
29/10:00am 12.2 9.0 6.7 69 2.7 NNW 13 17 7 9 1027.4 1027.1 0.0
29/09:30am 10.7 6.5 5.7 71 2.4 N 17 20 9 11 1027.7 1027.4 0.0
29/09:00am 11.4 7.9 7.1 75 2.1 NNE 15 20 8 11 1027.4 1027.1 0.0
29/08:30am 9.8 5.7 6.3 79 1.7 N 17 20 9 11 1027.4 1027.1 0.0
29/08:24am 9.9 5.8 6.4 79 1.7 N 17 24 9 13 1027.4 1027.1 0.0
29/08:12am 9.7 5.5 5.9 77 1.8 NNE 17 22 9 12 1027.4 1027.1 0.0
29/08:00am 10.6 7.8 8.4 86 1.1 NNE 13 17 7 9 1027.2 1027.0 0.0
29/07:30am 8.8 5.5 6.6 86 1.1 NNE 13 17 7 9 1027.1 1026.9 0.0
29/07:00am 8.2 6.3 6.8 91 0.7 NE 6 7 3 4 1026.7 1026.4 0.0
29/06:30am 7.4 4.8 6.0 91 0.7 NE 9 11 5 6 1026.2 1025.9 0.0
29/06:00am 7.2 4.9 5.8 91 0.7 NE 7 9 4 5 1026.1 1025.8 0.0
29/05:30am 7.3 5.2 5.9 91 0.7 NNE 6 7 3 4 1025.5 1025.2 0.0
29/05:00am 7.5 4.9 6.1 91 0.7 NE 9 11 5 6 1025.3 1025.0 0.0
29/04:30am 7.4 6.5 5.9 90 0.7 CALM 0 6 0 3 1025.4 1025.1 0.0
29/04:00am 7.5 6.6 6.1 91 0.7 CALM 0 0 0 0 1025.2 1024.9 0.0
29/03:30am 7.5 6.6 6.0 90 0.7 CALM 0 0 0 0 1025.4 1025.1 0.0
29/03:00am 7.5 6.6 6.0 90 0.7 CALM 0 0 0 0 1025.6 1025.3 0.0
29/02:30am 7.5 5.3 6.1 91 0.7 NNE 7 7 4 4 1025.9 1025.6 0.0
29/02:00am 7.6 6.3 6.1 90 0.7 NNE 2 6 1 3 1026.4 1026.1 0.0
29/01:30am 7.7 5.7 6.2 90 0.7 NNE 6 7 3 4 1026.6 1026.3 0.0
29/01:00am 7.5 6.2 6.0 90 0.7 NNE 2 11 1 6 1026.9 1026.6 0.0
29/12:30am 7.4 5.4 6.2 92 0.6 NE 6 7 3 4 1026.7 1026.4 0.0
29/12:00am 7.1 4.8 5.9 92 0.6 NNE 7 11 4 6 1026.9 1026.6 0.0
 
Date/Time
EST
Temp
°C
App
Temp
°C
Dew
Point
°C
Rel
Hum
%
Delta-T
°C
Wind Press
QNH
hPa
Press
MSL
hPa
Rain since
9am
mm
Dir  Spd
km/h
Gust
km/h
Spd
kts
Gust
kts
28/11:30pm 7.2 5.1 6.0 92 0.6 ESE 6 7 3 4 1027.0 1026.8 0.0
28/11:00pm 7.3 5.1 6.1 92 0.6 E 7 9 4 5 1027.0 1026.8 0.0
28/10:34pm 7.2 4.6 6.1 93 0.5 SE 9 11 5 6 1027.1 1026.9 0.0
28/10:30pm 7.1 4.5 6.0 93 0.5 ESE 9 11 5 6 1027.1 1026.9 0.0
28/10:00pm 6.9 4.6 5.8 93 0.5 E 7 9 4 5 1027.4 1027.1 0.0
28/09:30pm 6.5 4.2 5.5 93 0.5 ESE 7 9 4 5 1027.2 1027.0 0.0
28/09:00pm 6.4 4.2 5.2 92 0.5 ESE 6 6 3 3 1027.4 1027.1 0.0
28/08:50pm 6.4 4.2 5.2 92 0.5 ESE 6 6 3 3 1027.2 1027.0 0.0
28/08:30pm 6.6 4.2 5.2 91 0.6 ESE 7 9 4 5 1027.2 1027.0 0.0
28/08:00pm 6.7 3.9 5.3 91 0.6 E 9 15 5 8 1026.8 1026.5 0.0
28/07:30pm 7.0 3.8 5.3 89 0.8 E 11 15 6 8 1026.5 1026.2 0.0
28/07:00pm 7.4 4.3 5.4 87 0.9 E 11 15 6 8 1026.1 1025.8 0.0
28/06:30pm 7.9 4.4 5.5 85 1.1 ENE 13 17 7 9 1025.6 1025.3 0.0
28/06:00pm 8.8 5.4 5.7 81 1.5 E 13 17 7 9 1025.3 1025.0 0.0
28/05:30pm 10.3 6.2 6.3 76 1.9 E 17 20 9 11 1024.8 1024.5 0.0
28/05:00pm 11.5 7.1 6.6 72 2.4 ESE 19 24 10 13 1024.6 1024.3 0.0
28/04:30pm 13.0 9.0 6.6 65 3.2 ENE 17 20 9 11 1024.0 1023.7 0.0
28/04:00pm 15.6 12.8 2.1 40 6.2 SSE 6 9 3 5 1023.8 1023.5 0.0
28/03:30pm 16.1 11.9 1.8 38 6.6 SW 13 19 7 10 1023.8 1023.5 0.0
28/03:00pm 15.5 12.3 0.5 36 6.7 WSW 7 11 4 6 1024.0 1023.7 0.0
28/02:30pm 15.9 13.5 5.2 49 5.3 SSE 7 19 4 10 1024.3 1023.9 0.0
28/02:00pm 15.7 12.2 3.5 44 5.8 WSW 11 17 6 9 1024.6 1024.3 0.0
28/01:30pm 15.0 10.2 0.4 37 6.5 SW 15 28 8 15 1024.7 1024.4 0.0
28/01:00pm 14.6 11.0 3.1 46 5.4 SW 11 19 6 10 1025.0 1024.7 0.0
28/12:30pm 14.7 11.9 2.9 45 5.5 WSW 7 13 4 7 1025.2 1024.9 0.0
28/12:00pm 14.7 12.1 4.4 50 4.9 WNW 7 11 4 6 1025.5 1025.2 0.0
28/11:30am 13.1 9.7 1.8 46 5.1 SSE 9 15 5 8 1026.0 1025.7 0.0
28/11:00am 12.6 8.6 0.4 43 5.3 W 11 17 6 9 1026.4 1026.1 0.0
28/10:30am 12.4 8.1 0.8 45 5.1 W 13 22 7 12 1026.6 1026.3 0.0
28/10:00am 11.9 7.8 2.1 51 4.4 NW 13 19 7 10 1026.7 1026.4 0.0
28/09:30am 11.3 8.2 3.8 60 3.5 NW 9 17 5 9 1027.0 1026.8 0.0
28/09:00am 10.2 6.4 4.1 66 2.8 WNW 13 17 7 9 1027.2 1027.0 0.0
28/08:30am 8.2 5.8 4.2 76 1.8 WNW 6 11 3 6 1027.2 1027.0 0.0
28/08:00am 6.1 4.9 4.6 90 0.7 CALM 0 0 0 0 1027.1 1026.9 0.0

Other formats

Comma delimited format used in spreadsheet applications
http://www.bom.gov.au/fwo/IDN60801/IDN60801.94746.axf

JavaScript Object Notation format (JSON) in row-major order
http://www.bom.gov.au/fwo/IDN60801/IDN60801.94746.json

Data quality

Most of these data are generated automatically and are frequently updated. Quality checks on data are not normally performed. It is possible for incorrect values to appear. Refer to information at About Latest Weather Observations and please check the disclaimer before using these data.